createdAt,value
2018-11-25T00:00:38.331Z,977.23
2018-11-25T00:01:38.292Z,977.23
2018-11-25T00:02:38.251Z,977.23
2018-11-25T00:03:38.211Z,977.21
2018-11-25T00:04:38.166Z,977.18
2018-11-25T00:05:38.128Z,977.21
2018-11-25T00:06:38.082Z,977.22
2018-11-25T00:07:38.043Z,977.22
2018-11-25T00:08:37.996Z,977.21
2018-11-25T00:09:37.956Z,977.23
2018-11-25T00:10:37.919Z,977.19
2018-11-25T00:11:37.871Z,977.20
2018-11-25T00:12:37.835Z,977.18
2018-11-25T00:13:37.794Z,977.24
2018-11-25T00:14:37.748Z,977.21
2018-11-25T00:15:37.707Z,977.22
2018-11-25T00:16:37.669Z,977.20
2018-11-25T00:17:37.629Z,977.21
2018-11-25T00:18:37.582Z,977.20
2018-11-25T00:19:37.542Z,977.21
2018-11-25T00:20:37.503Z,977.21
2018-11-25T00:21:37.456Z,977.20
2018-11-25T00:22:37.421Z,977.17
2018-11-25T00:23:37.376Z,977.18
2018-11-25T00:24:37.336Z,977.12
2018-11-25T00:25:37.298Z,977.11
2018-11-25T00:26:37.248Z,977.08
2018-11-25T00:27:37.208Z,977.07
2018-11-25T00:28:37.167Z,977.04
2018-11-25T00:29:37.124Z,977.07
2018-11-25T00:30:37.090Z,977.05
2018-11-25T00:31:37.043Z,977.03
2018-11-25T00:32:37.000Z,977.02
2018-11-25T00:33:36.956Z,977.05
2018-11-25T00:34:36.922Z,977.02
2018-11-25T00:35:36.877Z,977.07
2018-11-25T00:36:36.837Z,977.04
2018-11-25T00:37:36.799Z,977.07
2018-11-25T00:38:36.751Z,977.08
2018-11-25T00:39:36.708Z,977.06
2018-11-25T00:40:36.669Z,977.07
2018-11-25T00:41:36.624Z,977.05
2018-11-25T00:42:36.597Z,977.00
2018-11-25T00:43:36.544Z,977.03
2018-11-25T00:44:36.503Z,977.02
2018-11-25T00:45:36.464Z,977.00
2018-11-25T00:46:36.417Z,976.99
2018-11-25T00:47:36.381Z,977.01
2018-11-25T00:48:36.337Z,977.02
2018-11-25T00:49:36.297Z,976.99
2018-11-25T00:50:36.250Z,976.96
2018-11-25T00:51:36.211Z,976.93
2018-11-25T00:52:36.169Z,976.91
2018-11-25T00:53:36.125Z,976.92
2018-11-25T00:54:36.101Z,976.92
2018-11-25T00:55:36.049Z,976.91
2018-11-25T00:56:36.005Z,976.93
2018-11-25T00:57:35.965Z,976.93
2018-11-25T00:58:35.919Z,976.92
2018-11-25T00:59:35.878Z,976.90
2018-11-25T01:00:35.836Z,976.89
2018-11-25T01:01:35.794Z,976.87
2018-11-25T01:02:35.756Z,976.86
2018-11-25T01:03:35.731Z,976.84
2018-11-25T01:04:35.669Z,976.84
2018-11-25T01:05:35.625Z,976.81
2018-11-25T01:06:35.590Z,976.83
2018-11-25T01:07:35.546Z,976.80
2018-11-25T01:08:35.507Z,976.83
2018-11-25T01:09:35.464Z,976.86
2018-11-25T01:10:35.421Z,976.89
2018-11-25T01:11:35.407Z,976.90
2018-11-25T01:12:35.336Z,976.89
2018-11-25T01:13:35.291Z,976.88
2018-11-25T01:14:35.255Z,976.91
2018-11-25T01:15:35.211Z,976.88
2018-11-25T01:16:35.168Z,976.84
2018-11-25T01:17:35.131Z,976.89
2018-11-25T01:18:35.082Z,976.92
2018-11-25T01:19:35.041Z,976.88
2018-11-25T01:20:35.007Z,976.90
2018-11-25T01:21:34.963Z,976.91
2018-11-25T01:22:34.917Z,976.92
2018-11-25T01:23:34.881Z,976.91
2018-11-25T01:24:34.834Z,976.92
2018-11-25T01:25:34.790Z,976.93
2018-11-25T01:26:34.756Z,976.91
2018-11-25T01:27:34.711Z,976.89
2018-11-25T01:28:34.668Z,976.93
2018-11-25T01:29:34.631Z,976.93
2018-11-25T01:30:34.581Z,976.91
2018-11-25T01:31:34.543Z,976.91
2018-11-25T01:32:34.499Z,976.92
2018-11-25T01:33:34.456Z,976.93
2018-11-25T01:34:34.424Z,976.92
2018-11-25T01:35:34.377Z,976.94
2018-11-25T01:36:34.332Z,976.98
2018-11-25T01:37:34.296Z,976.97
2018-11-25T01:38:34.253Z,976.97
2018-11-25T01:39:34.208Z,976.97
2018-11-25T01:40:34.167Z,976.96
2018-11-25T01:41:34.127Z,976.95
2018-11-25T01:42:34.081Z,976.94
2018-11-25T01:43:34.040Z,976.95
2018-11-25T01:44:34.004Z,976.99
2018-11-25T01:45:33.954Z,976.97
2018-11-25T01:46:33.919Z,977.00
2018-11-25T01:47:33.875Z,976.96
2018-11-25T01:48:33.833Z,976.98
2018-11-25T01:49:33.793Z,976.94
2018-11-25T01:50:33.748Z,976.93
2018-11-25T01:51:33.704Z,976.97
2018-11-25T01:52:33.676Z,976.94
2018-11-25T01:53:33.637Z,976.93
2018-11-25T01:54:33.581Z,976.98
2018-11-25T01:55:33.538Z,976.93
2018-11-25T01:56:33.497Z,976.93
2018-11-25T01:57:33.454Z,976.97
2018-11-25T01:58:33.427Z,976.88
2018-11-25T01:59:33.382Z,976.88
2018-11-25T02:00:33.337Z,976.87
2018-11-25T02:01:33.294Z,976.80
2018-11-25T02:02:33.248Z,976.78
2018-11-25T02:03:33.206Z,976.82
2018-11-25T02:04:33.166Z,976.82
2018-11-25T02:05:33.119Z,976.79
2018-11-25T02:06:33.086Z,976.76
2018-11-25T02:07:33.043Z,976.73
2018-11-25T02:08:33.001Z,976.75
2018-11-25T02:09:32.953Z,976.73
2018-11-25T02:10:32.922Z,976.77
2018-11-25T02:11:32.873Z,976.73
2018-11-25T02:12:32.831Z,976.70
2018-11-25T02:13:32.794Z,976.72
2018-11-25T02:14:32.744Z,976.71
2018-11-25T02:15:32.704Z,976.71
2018-11-25T02:16:32.665Z,976.71
2018-11-25T02:17:32.626Z,976.66
2018-11-25T02:18:32.579Z,976.65
2018-11-25T02:19:32.537Z,976.67
2018-11-25T02:20:32.496Z,976.66
2018-11-25T02:21:32.453Z,976.67
2018-11-25T02:22:32.418Z,976.67
2018-11-25T02:23:32.372Z,976.68
2018-11-25T02:24:32.329Z,976.67
2018-11-25T02:25:32.289Z,976.69
2018-11-25T02:26:32.253Z,976.73
2018-11-25T02:27:32.206Z,976.71
2018-11-25T02:28:32.165Z,976.67
2018-11-25T02:29:32.125Z,976.67
2018-11-25T02:30:32.082Z,976.67
2018-11-25T02:31:32.037Z,976.64
2018-11-25T02:32:31.996Z,976.63
2018-11-25T02:33:31.952Z,976.63
2018-11-25T02:34:31.919Z,976.59
2018-11-25T02:35:31.875Z,976.59
2018-11-25T02:36:31.833Z,976.57
2018-11-25T02:37:31.797Z,976.60
2018-11-25T02:38:31.745Z,976.59
2018-11-25T02:39:31.704Z,976.59
2018-11-25T02:40:31.664Z,976.58
2018-11-25T02:41:31.625Z,976.55
2018-11-25T02:42:31.578Z,976.55
2018-11-25T02:43:31.538Z,976.53
2018-11-25T02:44:31.500Z,976.53
2018-11-25T02:45:31.456Z,976.54
2018-11-25T02:46:31.417Z,976.53
2018-11-25T02:47:31.372Z,976.53
2018-11-25T02:48:31.333Z,976.58
2018-11-25T02:49:31.292Z,976.56
2018-11-25T02:50:31.247Z,976.51
2018-11-25T02:51:31.205Z,976.54
2018-11-25T02:52:31.163Z,976.56
2018-11-25T02:53:31.121Z,976.56
2018-11-25T02:54:31.084Z,976.56
2018-11-25T02:55:31.040Z,976.57
2018-11-25T02:56:30.998Z,976.55
2018-11-25T02:57:30.953Z,976.57
2018-11-25T02:58:30.918Z,976.58
2018-11-25T02:59:30.875Z,976.58
2018-11-25T03:00:30.834Z,976.55
2018-11-25T03:01:30.793Z,976.56
2018-11-25T03:02:30.745Z,976.56
2018-11-25T03:03:30.706Z,976.58
2018-11-25T03:04:30.667Z,976.55
2018-11-25T03:05:30.621Z,976.56
2018-11-25T03:06:30.598Z,976.55
2018-11-25T03:07:30.544Z,976.53
2018-11-25T03:08:30.510Z,976.50
2018-11-25T03:09:30.462Z,976.47
2018-11-25T03:10:30.461Z,976.48
2018-11-25T03:11:30.375Z,976.47
2018-11-25T03:12:30.335Z,976.48
2018-11-25T03:13:30.301Z,976.48
2018-11-25T03:14:30.250Z,976.48
2018-11-25T03:15:30.210Z,976.51
2018-11-25T03:16:30.168Z,976.49
2018-11-25T03:17:30.126Z,976.51
2018-11-25T03:18:30.091Z,976.48
2018-11-25T03:19:30.046Z,976.48
2018-11-25T03:20:30.006Z,976.50
2018-11-25T03:21:29.964Z,976.49
2018-11-25T03:22:29.930Z,976.47
2018-11-25T03:23:29.880Z,976.48
2018-11-25T03:24:29.838Z,976.51
2018-11-25T03:25:29.793Z,976.48
2018-11-25T03:26:29.758Z,976.49
2018-11-25T03:27:29.717Z,976.51
2018-11-25T03:28:29.668Z,976.45
2018-11-25T03:29:29.627Z,976.48
2018-11-25T03:30:29.590Z,976.48
2018-11-25T03:31:29.547Z,976.46
2018-11-25T03:32:29.505Z,976.48
2018-11-25T03:33:29.468Z,976.49
2018-11-25T03:34:29.420Z,976.45
2018-11-25T03:35:29.378Z,976.50
2018-11-25T03:36:29.338Z,976.49
2018-11-25T03:37:29.295Z,976.52
2018-11-25T03:38:29.260Z,976.54
2018-11-25T03:39:29.215Z,976.57
2018-11-25T03:40:29.174Z,976.53
2018-11-25T03:41:29.138Z,976.56
2018-11-25T03:42:29.091Z,976.56
2018-11-25T03:43:29.046Z,976.59
2018-11-25T03:44:29.008Z,976.59
2018-11-25T03:45:28.967Z,976.57
2018-11-25T03:46:28.921Z,976.56
2018-11-25T03:47:28.881Z,976.54
2018-11-25T03:48:28.840Z,976.47
2018-11-25T03:49:28.798Z,976.44
2018-11-25T03:50:28.763Z,976.44
2018-11-25T03:51:28.717Z,976.43
2018-11-25T03:52:28.680Z,976.39
2018-11-25T04:06:37.999Z,976.34
2018-11-25T04:07:37.921Z,976.33
2018-11-25T04:08:37.875Z,976.32
2018-11-25T04:09:37.828Z,976.36
2018-11-25T04:10:37.782Z,976.38
2018-11-25T04:11:37.743Z,976.35
2018-11-25T04:12:37.699Z,976.36
2018-11-25T04:13:37.657Z,976.39
2018-11-25T04:14:46.259Z,976.38
2018-11-25T04:16:42.004Z,976.37
2018-11-25T04:17:41.934Z,976.37
2018-11-25T04:18:41.889Z,976.39
2018-11-25T04:19:41.849Z,976.36
2018-11-25T04:20:41.810Z,976.41
2018-11-25T04:21:41.770Z,976.38
2018-11-25T04:22:41.724Z,976.36
2018-11-25T04:23:41.679Z,976.35
2018-11-25T04:24:41.640Z,976.30
2018-11-25T04:25:41.600Z,976.30
2018-11-25T04:26:41.556Z,976.33
2018-11-25T04:27:41.516Z,976.37
2018-11-25T04:28:41.481Z,976.37
2018-11-25T04:29:41.425Z,976.36
2018-11-25T04:30:41.382Z,976.39
2018-11-25T04:31:41.346Z,976.41
2018-11-25T04:32:41.308Z,976.38
2018-11-25T04:33:41.264Z,976.36
2018-11-25T04:34:41.220Z,976.32
2018-11-25T04:35:41.176Z,976.32
2018-11-25T04:36:41.132Z,976.29
2018-11-25T04:37:41.093Z,976.29
2018-11-25T04:38:41.052Z,976.30
2018-11-25T04:39:41.016Z,976.32
2018-11-25T04:40:40.966Z,976.31
2018-11-25T04:41:40.921Z,976.31
2018-11-25T04:42:40.878Z,976.29
2018-11-25T04:43:40.839Z,976.29
2018-11-25T04:44:40.803Z,976.29
2018-11-25T04:45:40.760Z,976.27
2018-11-25T04:46:40.717Z,976.26
2018-11-25T04:47:40.675Z,976.27
2018-11-25T04:48:40.630Z,976.25
2018-11-25T04:49:40.593Z,976.31
2018-11-25T04:50:40.544Z,976.30
2018-11-25T04:51:40.507Z,976.29
2018-11-25T04:52:41.124Z,976.28
2018-11-25T04:53:40.425Z,976.27
2018-11-25T04:54:40.378Z,976.31
2018-11-25T04:55:40.339Z,976.30
2018-11-25T04:56:40.301Z,976.28
2018-11-25T04:57:40.259Z,976.29
2018-11-25T04:58:40.217Z,976.26
2018-11-25T04:59:40.176Z,976.30
2018-11-25T05:00:40.129Z,976.28
2018-11-25T05:01:40.085Z,976.27
2018-11-25T05:02:40.044Z,976.34
2018-11-25T05:03:40.006Z,976.29
2018-11-25T05:04:39.964Z,976.29
2018-11-25T05:05:39.924Z,976.28
2018-11-25T05:06:39.882Z,976.27
2018-11-25T05:07:39.839Z,976.27
2018-11-25T05:08:39.802Z,976.24
2018-11-25T05:09:39.752Z,976.22
2018-11-25T05:10:39.715Z,976.23
2018-11-25T05:11:39.672Z,976.21
2018-11-25T05:12:39.628Z,976.18
2018-11-25T05:13:39.585Z,976.24
2018-11-25T05:14:39.545Z,976.19
2018-11-25T05:15:39.503Z,976.18
2018-11-25T05:16:39.464Z,976.20
2018-11-25T05:17:39.425Z,976.20
2018-11-25T05:18:39.383Z,976.23
2018-11-25T05:19:39.338Z,976.23
2018-11-25T05:20:39.295Z,976.19
2018-11-25T05:21:39.252Z,976.17
2018-11-25T05:22:39.209Z,976.13
2018-11-25T05:23:39.170Z,976.15
2018-11-25T05:24:39.131Z,976.16
2018-11-25T05:25:39.091Z,976.15
2018-11-25T05:26:39.043Z,976.14
2018-11-25T05:27:39.006Z,976.15
2018-11-25T05:28:38.965Z,976.17
2018-11-25T05:29:38.925Z,976.17
2018-11-25T05:30:38.883Z,976.21
2018-11-25T05:31:38.843Z,976.17
2018-11-25T05:32:38.801Z,976.18
2018-11-25T05:33:38.753Z,976.19
2018-11-25T05:34:38.710Z,976.17
2018-11-25T05:35:38.672Z,976.18
2018-11-25T05:36:38.631Z,976.17
2018-11-25T05:37:38.596Z,976.17
2018-11-25T05:38:38.550Z,976.16
2018-11-25T05:39:38.509Z,976.20
2018-11-25T05:40:38.466Z,976.17
2018-11-25T05:41:38.421Z,976.19
2018-11-25T05:42:38.385Z,976.14
2018-11-25T05:43:38.340Z,976.20
2018-11-25T05:44:38.298Z,976.16
2018-11-25T05:45:38.254Z,976.18
2018-11-25T05:46:38.211Z,976.17
2018-11-25T05:47:38.171Z,976.19
2018-11-25T05:48:38.137Z,976.17
2018-11-25T05:49:38.094Z,976.15
2018-11-25T05:50:38.051Z,976.19
2018-11-25T05:51:38.008Z,976.22
2018-11-25T05:52:37.967Z,976.20
2018-11-25T05:53:37.922Z,976.19
2018-11-25T05:54:37.880Z,976.18
2018-11-25T05:55:37.853Z,976.14
2018-11-25T05:56:37.806Z,976.18
2018-11-25T05:57:37.761Z,976.16
2018-11-25T05:58:37.710Z,976.23
2018-11-25T05:59:37.673Z,976.21
2018-11-25T06:00:37.634Z,976.22
2018-11-25T06:01:37.593Z,976.24
2018-11-25T06:02:37.551Z,976.23
2018-11-25T06:03:37.507Z,976.20
2018-11-25T06:04:37.465Z,976.21
2018-11-25T06:05:37.421Z,976.19
2018-11-25T06:06:37.376Z,976.23
2018-11-25T06:07:37.339Z,976.24
2018-11-25T06:08:37.298Z,976.26
2018-11-25T06:09:37.259Z,976.27
2018-11-25T06:10:37.219Z,976.24
2018-11-25T06:11:37.171Z,976.22
2018-11-25T06:12:37.130Z,976.25
2018-11-25T06:13:37.083Z,976.20
2018-11-25T06:14:37.052Z,976.22
2018-11-25T06:15:37.004Z,976.26
2018-11-25T06:16:36.960Z,976.28
2018-11-25T06:17:36.917Z,976.26
2018-11-25T06:18:36.879Z,976.26
2018-11-25T06:19:36.834Z,976.26
2018-11-25T06:20:36.793Z,976.24
2018-11-25T06:21:36.760Z,976.21
2018-11-25T06:22:36.707Z,976.23
2018-11-25T06:23:36.669Z,976.24
2018-11-25T06:24:36.621Z,976.27
2018-11-25T06:25:36.581Z,976.27
2018-11-25T06:26:36.538Z,976.21
2018-11-25T06:27:38.208Z,976.22
2018-11-25T06:28:36.458Z,976.25
2018-11-25T06:29:36.415Z,976.23
2018-11-25T06:30:36.369Z,976.21
2018-11-25T06:31:36.329Z,976.19
2018-11-25T06:32:36.291Z,976.21
2018-11-25T06:33:36.247Z,976.23
2018-11-25T06:34:36.204Z,976.21
2018-11-25T06:35:36.164Z,976.24
2018-11-25T06:36:36.117Z,976.25
2018-11-25T06:37:36.078Z,976.23
2018-11-25T06:38:36.037Z,976.24
2018-11-25T06:39:35.990Z,976.28
2018-11-25T06:40:35.958Z,976.25
2018-11-25T06:41:35.911Z,976.26
2018-11-25T06:42:35.870Z,976.27
2018-11-25T06:43:35.829Z,976.23
2018-11-25T06:44:35.780Z,976.27
2018-11-25T06:45:35.748Z,976.27
2018-11-25T06:46:35.701Z,976.28
2018-11-25T06:47:35.660Z,976.30
2018-11-25T06:48:35.615Z,976.30
2018-11-25T06:49:35.580Z,976.27
2018-11-25T06:50:35.535Z,976.27
2018-11-25T06:51:35.495Z,976.26
2018-11-25T06:52:35.452Z,976.25
2018-11-25T06:53:35.408Z,976.25
2018-11-25T06:54:35.366Z,976.25
2018-11-25T06:55:35.326Z,976.27
2018-11-25T06:56:35.277Z,976.30
2018-11-25T06:57:35.239Z,976.25
2018-11-25T06:58:35.196Z,976.28
2018-11-25T06:59:35.161Z,976.27
2018-11-25T07:00:35.116Z,976.27
2018-11-25T07:01:35.074Z,976.29
2018-11-25T07:02:35.028Z,976.30
2018-11-25T07:03:34.986Z,976.29
2018-11-25T07:04:34.953Z,976.30
2018-11-25T07:05:34.905Z,976.31
2018-11-25T07:06:34.862Z,976.32
2018-11-25T07:07:34.834Z,976.33
2018-11-25T07:08:34.777Z,976.32
2018-11-25T07:09:34.740Z,976.34
2018-11-25T07:10:34.725Z,976.36
2018-11-25T07:11:34.648Z,976.37
2018-11-25T07:12:34.613Z,976.36
2018-11-25T07:13:34.570Z,976.37
2018-11-25T07:14:34.529Z,976.36
2018-11-25T07:15:34.488Z,976.34
2018-11-25T07:16:34.440Z,976.34
2018-11-25T07:17:34.402Z,976.34
2018-11-25T07:18:34.360Z,976.31
2018-11-25T07:19:34.326Z,976.33
2018-11-25T07:20:34.273Z,976.31
2018-11-25T07:21:34.238Z,976.33
2018-11-25T07:22:34.196Z,976.36
2018-11-25T07:23:34.149Z,976.31
2018-11-25T07:24:34.113Z,976.36
2018-11-25T07:25:34.070Z,976.32
2018-11-25T07:26:34.029Z,976.31
2018-11-25T07:27:33.987Z,976.25
2018-11-25T07:28:33.939Z,976.23
2018-11-25T07:29:33.901Z,976.23
2018-11-25T07:30:33.857Z,976.27
2018-11-25T07:31:33.815Z,976.30
2018-11-25T07:32:33.779Z,976.30
2018-11-25T07:33:33.735Z,976.33
2018-11-25T07:34:33.693Z,976.29
2018-11-25T07:35:33.647Z,976.28
2018-11-25T07:36:33.617Z,976.27
2018-11-25T07:37:33.570Z,976.29
2018-11-25T07:38:33.527Z,976.26
2018-11-25T07:39:33.486Z,976.27
2018-11-25T07:40:33.441Z,976.28
2018-11-25T07:41:33.400Z,976.26
2018-11-25T07:42:33.358Z,976.25
2018-11-25T07:43:33.314Z,976.23
2018-11-25T07:44:33.286Z,976.19
2018-11-25T07:45:33.236Z,976.22
2018-11-25T07:46:33.194Z,976.16
2018-11-25T07:47:33.154Z,976.17
2018-11-25T07:48:33.108Z,976.15
2018-11-25T07:49:33.068Z,976.13
2018-11-25T07:50:33.029Z,976.15
2018-11-25T07:51:32.988Z,976.12
2018-11-25T07:52:32.942Z,976.16
2018-11-25T07:53:32.923Z,976.14
2018-11-25T07:54:32.859Z,976.14
2018-11-25T07:55:32.816Z,976.11
2018-11-25T07:56:32.829Z,976.14
2018-11-25T07:57:32.739Z,976.18
2018-11-25T07:58:32.695Z,976.18
2018-11-25T07:59:32.657Z,976.16
2018-11-25T08:00:32.610Z,976.18
2018-11-25T08:01:32.568Z,976.17
2018-11-25T08:02:32.528Z,976.16
2018-11-25T08:03:32.484Z,976.15
2018-11-25T08:04:32.452Z,976.16
2018-11-25T08:05:32.405Z,976.15
2018-11-25T08:06:32.361Z,976.19
2018-11-25T08:07:32.744Z,976.19
2018-11-25T08:08:32.291Z,976.21
2018-11-25T08:09:32.239Z,976.24
2018-11-25T08:10:32.200Z,976.23
2018-11-25T08:11:32.159Z,976.22
2018-11-25T08:12:32.111Z,976.20
2018-11-25T08:13:32.073Z,976.21
2018-11-25T08:14:32.029Z,976.20
2018-11-25T08:15:31.986Z,976.21
2018-11-25T08:16:31.959Z,976.26
2018-11-25T08:17:31.908Z,976.24
2018-11-25T08:18:31.870Z,976.25
2018-11-25T08:19:31.827Z,976.23
2018-11-25T08:20:31.779Z,976.22
2018-11-25T08:21:31.741Z,976.22
2018-11-25T08:22:31.699Z,976.22
2018-11-25T08:23:31.664Z,976.25
2018-11-25T08:24:31.618Z,976.25
2018-11-25T08:25:31.574Z,976.28
2018-11-25T08:26:31.533Z,976.30
2018-11-25T08:27:31.491Z,976.26
2018-11-25T08:28:31.459Z,976.31
2018-11-25T08:29:31.416Z,976.27
2018-11-25T08:30:31.370Z,976.28
2018-11-25T08:31:31.331Z,976.26
2018-11-25T08:32:31.287Z,976.28
2018-11-25T08:33:31.248Z,976.28
2018-11-25T08:34:31.201Z,976.27
2018-11-25T08:35:31.158Z,976.26
2018-11-25T08:36:31.122Z,976.19
2018-11-25T08:37:31.083Z,976.26
2018-11-25T08:38:31.035Z,976.17
2018-11-25T08:39:30.992Z,976.22
2018-11-25T08:40:30.956Z,976.23
2018-11-25T08:41:30.917Z,976.20
2018-11-25T08:42:30.883Z,976.22
2018-11-25T08:43:30.833Z,976.26
2018-11-25T08:44:30.794Z,976.22
2018-11-25T08:45:30.747Z,976.22
2018-11-25T08:46:30.704Z,976.25
2018-11-25T08:47:30.660Z,976.21
2018-11-25T08:48:30.625Z,976.24
2018-11-25T08:49:30.588Z,976.25
2018-11-25T08:50:30.542Z,976.27
2018-11-25T08:51:30.501Z,976.24
2018-11-25T08:52:30.453Z,976.28
2018-11-25T08:53:30.413Z,976.26
2018-11-25T08:54:30.374Z,976.26
2018-11-25T08:55:30.333Z,976.24
2018-11-25T08:56:30.289Z,976.24
2018-11-25T08:57:30.248Z,976.23
2018-11-25T08:58:30.205Z,976.19
2018-11-25T08:59:30.161Z,976.20
2018-11-25T09:00:30.129Z,976.17
2018-11-25T09:01:30.083Z,976.20
2018-11-25T09:02:30.041Z,976.22
2018-11-25T09:03:30.003Z,976.22
2018-11-25T09:04:29.962Z,976.22
2018-11-25T09:05:29.913Z,976.22
2018-11-25T09:06:29.872Z,976.27
2018-11-25T09:07:29.828Z,976.23
2018-11-25T09:08:29.794Z,976.27
2018-11-25T09:09:30.407Z,976.25
2018-11-25T09:10:29.717Z,976.27
2018-11-25T09:11:29.664Z,976.26
2018-11-25T09:12:29.626Z,976.24
2018-11-25T09:13:29.584Z,976.29
2018-11-25T09:14:29.541Z,976.30
2018-11-25T09:15:29.501Z,976.30
2018-11-25T09:16:29.455Z,976.29
2018-11-25T09:17:29.418Z,976.28
2018-11-25T09:18:29.372Z,976.28
2018-11-25T09:19:29.329Z,976.29
2018-11-25T09:20:29.296Z,976.30
2018-11-25T09:21:29.250Z,976.27
2018-11-25T09:22:29.209Z,976.26
2018-11-25T09:23:29.169Z,976.28
2018-11-25T09:24:29.124Z,976.25
2018-11-25T09:25:29.084Z,976.23
2018-11-25T09:26:29.042Z,976.25
2018-11-25T09:27:29.002Z,976.21
2018-11-25T09:28:28.957Z,976.20
2018-11-25T09:29:28.915Z,976.24
2018-11-25T09:30:28.878Z,976.21
2018-11-25T09:31:28.829Z,976.19
2018-11-25T09:32:28.794Z,976.22
2018-11-25T09:33:28.755Z,976.17
2018-11-25T09:34:28.708Z,976.17
2018-11-25T09:35:28.668Z,976.13
2018-11-25T09:36:28.626Z,976.15
2018-11-25T09:37:28.581Z,976.15
2018-11-25T09:38:28.539Z,976.17
2018-11-25T09:39:28.496Z,976.14
2018-11-25T09:40:28.459Z,976.15
2018-11-25T09:41:28.415Z,976.17
2018-11-25T09:42:28.372Z,976.18
2018-11-25T09:43:28.329Z,976.16
2018-11-25T09:44:28.294Z,976.16
2018-11-25T09:45:28.249Z,976.17
2018-11-25T09:46:28.207Z,976.17
2018-11-25T09:47:28.200Z,976.12
2018-11-25T09:48:28.121Z,976.14
2018-11-25T09:49:28.082Z,976.13
2018-11-25T09:50:28.042Z,976.10
2018-11-25T09:51:27.996Z,976.11
2018-11-25T09:52:27.959Z,976.12
2018-11-25T09:53:27.915Z,976.12
2018-11-25T09:54:27.876Z,976.10
2018-11-25T09:55:27.835Z,976.11
2018-11-25T09:56:27.785Z,976.10
2018-11-25T09:57:27.747Z,976.15
2018-11-25T09:58:27.710Z,976.15
2018-11-25T09:59:27.667Z,976.16
2018-11-25T10:00:27.623Z,976.17
2018-11-25T10:01:27.580Z,976.16
2018-11-25T10:02:27.542Z,976.18
2018-11-25T10:03:27.495Z,976.13
2018-11-25T10:04:27.501Z,976.18
2018-11-25T10:05:27.416Z,976.14
2018-11-25T10:20:02.946Z,976.19
2018-11-25T10:21:02.872Z,976.18
2018-11-25T10:22:02.824Z,976.17
2018-11-25T10:23:02.788Z,976.17
2018-11-25T10:24:02.740Z,976.16
2018-11-25T10:25:02.702Z,976.16
2018-11-25T10:26:02.652Z,976.16
2018-11-25T10:27:02.604Z,976.15
2018-11-25T10:28:02.562Z,976.16
2018-11-25T10:29:02.521Z,976.13
2018-11-25T10:30:02.480Z,976.14
2018-11-25T10:31:02.431Z,976.11
2018-11-25T10:32:02.394Z,976.09
2018-11-25T10:33:02.382Z,976.07
2018-11-25T10:34:02.304Z,976.06
2018-11-25T10:35:02.272Z,976.09
2018-11-25T10:36:04.663Z,976.09
2018-11-25T10:37:02.184Z,976.08
2018-11-25T10:38:02.146Z,976.10
2018-11-25T10:39:02.092Z,976.11
2018-11-25T10:40:02.060Z,976.09
2018-11-25T10:41:02.013Z,976.07
2018-11-25T10:42:01.965Z,976.00
2018-11-25T10:43:01.934Z,976.01
2018-11-25T10:44:01.886Z,975.98
2018-11-25T10:45:01.846Z,975.96
2018-11-25T10:46:01.797Z,975.93
2018-11-25T10:47:01.765Z,975.91
2018-11-25T10:48:01.730Z,975.92
2018-11-25T10:49:01.678Z,975.92
2018-11-25T10:50:01.639Z,975.92
2018-11-25T10:51:01.589Z,975.92
2018-11-25T10:52:01.551Z,975.89
2018-11-25T10:53:01.509Z,975.89
2018-11-25T10:54:01.464Z,975.86
2018-11-25T10:55:01.429Z,975.82
2018-11-25T10:56:01.385Z,975.81
2018-11-25T10:57:01.343Z,975.81
2018-11-25T10:58:01.305Z,975.80
2018-11-25T10:59:01.255Z,975.82
2018-11-25T11:00:01.248Z,975.75
2018-11-25T11:01:01.179Z,975.75
2018-11-25T11:02:01.138Z,975.73
2018-11-25T11:03:01.090Z,975.73
2018-11-25T11:04:01.051Z,975.72
2018-11-25T11:05:01.009Z,975.72
2018-11-25T11:06:00.964Z,975.69
2018-11-25T11:07:00.931Z,975.70
2018-11-25T11:08:00.885Z,975.69
2018-11-25T11:09:00.844Z,975.65
2018-11-25T11:10:00.805Z,975.67
2018-11-25T11:11:00.757Z,975.65
2018-11-25T11:12:00.718Z,975.65
2018-11-25T11:13:00.680Z,975.65
2018-11-25T11:14:00.636Z,975.68
2018-11-25T11:15:00.598Z,975.64
2018-11-25T11:16:00.553Z,975.64
2018-11-25T11:17:00.522Z,975.67
2018-11-25T11:18:00.466Z,975.65
2018-11-25T11:19:00.431Z,975.65
2018-11-25T11:20:00.387Z,975.63
2018-11-25T11:21:00.348Z,975.64
2018-11-25T11:22:00.306Z,975.62
2018-11-25T11:23:00.263Z,975.64
2018-11-25T11:24:00.219Z,975.63
2018-11-25T11:25:00.177Z,975.60
2018-11-25T11:26:06.693Z,975.61
2018-11-25T11:27:00.100Z,975.62
2018-11-25T11:28:00.063Z,975.59
2018-11-25T11:29:00.015Z,975.63
2018-11-25T11:29:59.974Z,975.61
2018-11-25T11:30:59.926Z,975.57
2018-11-25T11:31:59.886Z,975.57
2018-11-25T11:32:59.889Z,975.57
2018-11-25T11:33:59.808Z,975.57
2018-11-25T11:34:59.760Z,975.55
2018-11-25T11:35:59.721Z,975.57
2018-11-25T11:36:59.680Z,975.57
2018-11-25T11:37:59.635Z,975.53
2018-11-25T11:38:59.604Z,975.55
2018-11-25T11:39:59.557Z,975.54
2018-11-25T11:40:59.518Z,975.58
2018-11-25T11:41:59.476Z,975.56
2018-11-25T11:42:59.429Z,975.52
2018-11-25T11:43:59.388Z,975.55
2018-11-25T11:44:59.348Z,975.56
2018-11-25T11:45:59.304Z,975.55
2018-11-25T11:46:59.268Z,975.54
2018-11-25T11:47:59.226Z,975.60
2018-11-25T11:48:59.178Z,975.56
2018-11-25T11:49:59.139Z,975.54
2018-11-25T11:50:59.103Z,975.51
2018-11-25T11:51:59.060Z,975.55
2018-11-25T11:52:59.018Z,975.53
2018-11-25T11:53:58.977Z,975.54
2018-11-25T11:54:58.929Z,975.55
2018-11-25T11:55:58.890Z,975.58
2018-11-25T11:56:58.850Z,975.61
2018-11-25T11:57:58.806Z,975.58
2018-11-25T11:58:58.769Z,975.55
2018-11-25T11:59:58.726Z,975.57
2018-11-25T12:00:58.688Z,975.56
2018-11-25T12:01:58.645Z,975.55
2018-11-25T12:02:58.597Z,975.56
2018-11-25T12:03:58.562Z,975.56
2018-11-25T12:04:58.518Z,975.57
2018-11-25T12:05:58.478Z,975.57
2018-11-25T12:06:58.431Z,975.58
2018-11-25T12:07:58.395Z,975.60
2018-11-25T12:08:58.349Z,975.57
2018-11-25T12:09:58.308Z,975.57
2018-11-25T12:10:58.272Z,975.63
2018-11-25T12:11:58.227Z,975.62
2018-11-25T12:12:58.188Z,975.58
2018-11-25T12:13:58.146Z,975.58
2018-11-25T12:14:58.097Z,975.60
2018-11-25T12:15:58.059Z,975.60
2018-11-25T12:16:58.018Z,975.58
2018-11-25T12:17:57.973Z,975.56
2018-11-25T12:18:57.937Z,975.59
2018-11-25T12:19:57.894Z,975.57
2018-11-25T12:20:57.853Z,975.55
2018-11-25T12:21:58.260Z,975.57
2018-11-25T12:22:57.773Z,975.53
2018-11-25T12:23:57.728Z,975.56
2018-11-25T12:24:57.687Z,975.54
2018-11-25T12:25:57.645Z,975.54
2018-11-25T12:26:57.600Z,975.56
2018-11-25T12:27:57.560Z,975.57
2018-11-25T12:28:57.519Z,975.52
2018-11-25T12:29:57.474Z,975.48
2018-11-25T12:30:57.447Z,975.50
2018-11-25T12:31:57.397Z,975.52
2018-11-25T12:32:57.353Z,975.56
2018-11-25T12:33:57.313Z,975.56
2018-11-25T12:34:57.266Z,975.58
2018-11-25T12:35:57.226Z,975.58
2018-11-25T12:36:57.188Z,975.61
2018-11-25T12:37:57.147Z,975.56
2018-11-25T12:38:57.098Z,975.59
2018-11-25T12:39:57.060Z,975.60
2018-11-25T12:40:57.023Z,975.57
2018-11-25T12:41:56.973Z,975.54
2018-11-25T12:42:56.938Z,975.54
2018-11-25T12:43:56.896Z,975.55
2018-11-25T12:44:56.853Z,975.54
2018-11-25T12:45:56.812Z,975.53
2018-11-25T12:46:56.767Z,975.55
2018-11-25T12:47:56.726Z,975.55
2018-11-25T12:48:56.685Z,975.45
2018-11-25T12:49:56.642Z,975.48
2018-11-25T12:50:56.605Z,975.44
2018-11-25T12:51:56.562Z,975.42
2018-11-25T12:52:56.518Z,975.46
2018-11-25T12:53:56.473Z,975.44
2018-11-25T12:54:56.438Z,975.41
2018-11-25T12:55:56.395Z,975.37